Terminal Aerodrome Forecast
Issued by NWS Twin Cities, MN

Home | Current Version | Previous Version | Graphics & Text | Print | Product List | Glossary On
Versions: 1 2 3 4 5 6 7 8 9 10 11 12 13 14 15
346
FTUS43 KMPX 261730
TAFEAU
TAF
KEAU 261730Z 2618/2718 28019G30KT P6SM BKN060
     FM270000 27010KT P6SM BKN060
     FM271400 29014G22KT P6SM OVC030=

USA.gov is the U.S. government's official web portal to all federal, state and local government web resources and services.